Time;durP1;ratioP1;P1;durP2;ratioP2;P2;SDS_P1;SDS_P2;PMS_P1;PMS_P2;Temp;Humidity;BMP_temperature;BMP_pressure;BME280_temperature;BME280_humidity;BME280_pressure;Samples;Min_cycle;Max_cycle;Signal;HPM_P1;HPM_P2
2023/07/22 04:14:24;;;;;;;0.93;0.93;;;;;;;;;;5586206;23;20228;-72
2023/07/22 04:16:52;;;;;;;1.10;1.10;;;;;;;;;;4996280;28;20226;-71
2023/07/22 04:19:19;;;;;;;0.90;0.90;;;;;;;;;;4996115;28;20215;-71
2023/07/22 04:21:46;;;;;;;1.15;1.15;;;;;;;;;;4996207;28;20223;-72
2023/07/22 04:24:13;;;;;;;1.00;0.98;;;;;;;;;;4996267;28;20231;-72
2023/07/22 04:26:40;;;;;;;1.10;1.10;;;;;;;;;;4996240;28;20202;-73
2023/07/22 04:29:07;;;;;;;1.20;1.20;;;;;;;;;;4996836;28;20210;-71
2023/07/22 04:31:36;;;;;;;0.98;0.98;;;;;;;;;;4995925;28;20203;-72
2023/07/22 04:34:03;;;;;;;1.10;1.10;;;;;;;;;;4996064;28;20226;-72
2023/07/22 04:36:30;;;;;;;1.30;1.20;;;;;;;;;;4996580;28;20222;-72
2023/07/22 04:38:57;;;;;;;1.05;1.05;;;;;;;;;;4995756;28;20207;-71
2023/07/22 04:41:24;;;;;;;1.15;1.15;;;;;;;;;;4995629;28;20246;-70
2023/07/22 04:43:51;;;;;;;1.10;1.10;;;;;;;;;;4995768;28;20223;-70
2023/07/22 04:46:18;;;;;;;0.80;0.80;;;;;;;;;;4995829;28;20209;-72
2023/07/22 04:48:47;;;;;;;1.08;1.08;;;;;;;;;;4995876;28;20214;-72
2023/07/22 04:51:14;;;;;;;1.10;1.10;;;;;;;;;;4995990;28;20194;-73
2023/07/22 04:53:41;;;;;;;1.17;1.17;;;;;;;;;;4995514;28;20223;-72
2023/07/22 04:56:08;;;;;;;1.10;1.10;;;;;;;;;;4995453;28;20213;-71
2023/07/22 04:58:35;;;;;;;1.17;1.08;;;;;;;;;;4995712;28;20265;-72
2023/07/22 05:01:02;;;;;;;1.30;1.23;;;;;;;;;;4995550;28;20219;-72
2023/07/22 05:03:29;;;;;;;1.20;1.20;;;;;;;;;;4995143;28;20569;-72
2023/07/22 05:05:58;;;;;;;1.95;1.30;;;;;;;;;;4995425;28;20202;-74
2023/07/22 05:08:25;;;;;;;1.10;1.10;;;;;;;;;;4995485;28;20293;-71
2023/07/22 05:10:53;;;;;;;1.33;1.33;;;;;;;;;;4997095;28;20206;-70
2023/07/22 05:13:20;;;;;;;1.15;1.15;;;;;;;;;;5004270;28;20234;-71
2023/07/22 05:15:47;;;;;;;1.30;1.30;;;;;;;;;;5007177;28;20202;-71
2023/07/22 05:18:14;;;;;;;1.50;1.40;;;;;;;;;;4999480;28;20213;-71
2023/07/22 05:20:41;;;;;;;1.27;1.27;;;;;;;;;;4994947;28;20202;-71
2023/07/22 05:23:10;;;;;;;1.83;1.73;;;;;;;;;;4995127;28;20317;-71
2023/07/22 05:25:37;;;;;;;1.83;1.73;;;;;;;;;;4994583;28;20226;-71
2023/07/22 05:28:04;;;;;;;1.80;1.70;;;;;;;;;;4994818;28;20209;-71
2023/07/22 05:30:38;;;;;;;1.88;1.77;;;;;;;;;;4995088;28;20223;-71
2023/07/22 05:33:05;;;;;;;1.90;1.80;;;;;;;;;;4994902;28;20216;-71
2023/07/22 05:35:32;;;;;;;2.00;1.90;;;;;;;;;;4994711;28;20341;-71
2023/07/22 05:38:00;;;;;;;2.75;2.50;;;;;;;;;;4995128;28;20205;-70
2023/07/22 05:40:28;;;;;;;2.45;1.80;;;;;;;;;;4994783;28;20202;-70
2023/07/22 05:43:01;;;;;;;2.17;2.08;;;;;;;;;;4994839;28;20229;-70
2023/07/22 05:45:31;;;;;;;2.60;2.40;;;;;;;;;;4994756;28;20234;-71
2023/07/22 05:48:06;;;;;;;2.22;2.10;;;;;;;;;;4994639;28;20186;-70
2023/07/22 05:50:36;;;;;;;2.50;2.30;;;;;;;;;;4994771;28;20190;-72
2023/07/22 05:53:11;;;;;;;2.45;2.33;;;;;;;;;;4994443;28;20189;-72
2023/07/22 05:55:46;;;;;;;2.53;2.33;;;;;;;;;;4994391;28;20232;-71
2023/07/22 05:58:20;;;;;;;3.10;2.50;;;;;;;;;;4994429;28;20193;-72
2023/07/22 06:00:51;;;;;;;2.70;2.50;;;;;;;;;;4994242;28;20556;-71
2023/07/22 06:03:22;;;;;;;2.33;2.22;;;;;;;;;;4993702;28;20210;-71
2023/07/22 06:05:52;;;;;;;2.63;2.30;;;;;;;;;;4994128;28;20613;-71
2023/07/22 06:08:25;;;;;;;2.08;1.95;;;;;;;;;;4994193;28;20630;-70
2023/07/22 06:10:58;;;;;;;2.38;2.28;;;;;;;;;;4994224;28;20190;-70
2023/07/22 06:13:28;;;;;;;2.05;1.95;;;;;;;;;;4994222;28;20198;-71
2023/07/22 06:16:20;;;;;;;2.35;2.13;;;;;;;;;;4994312;28;20261;-71
2023/07/22 06:19:09;;;;;;;4.50;2.25;;;;;;;;;;4994251;28;20202;-71
2023/07/22 06:21:38;;;;;;;3.10;2.38;;;;;;;;;;4994218;28;20186;-70
2023/07/22 06:24:08;;;;;;;2.63;2.42;;;;;;;;;;4993987;28;20313;-70
2023/07/22 06:26:38;;;;;;;2.50;2.30;;;;;;;;;;4994006;28;20210;-70
2023/07/22 06:29:08;;;;;;;2.97;2.40;;;;;;;;;;4994201;28;20274;-70
2023/07/22 06:31:35;;;;;;;3.88;2.55;;;;;;;;;;4993956;28;20289;-70
2023/07/22 06:34:11;;;;;;;3.45;2.08;;;;;;;;;;4993914;28;20214;-70
2023/07/22 06:37:07;;;;;;;4.22;2.78;;;;;;;;;;4993991;28;20193;-70
2023/07/22 06:39:34;;;;;;;3.17;2.80;;;;;;;;;;4993969;28;20183;-70
2023/07/22 06:42:03;;;;;;;2.15;2.03;;;;;;;;;;4993524;28;20198;-70
2023/07/22 06:44:30;;;;;;;2.80;2.60;;;;;;;;;;4993670;28;20233;-72
2023/07/22 06:46:57;;;;;;;2.45;2.25;;;;;;;;;;4993795;28;20229;-71
2023/07/22 06:49:24;;;;;;;2.70;2.50;;;;;;;;;;4993874;28;20202;-71
2023/07/22 06:51:51;;;;;;;2.60;1.90;;;;;;;;;;4993801;28;20214;-71
2023/07/22 06:54:18;;;;;;;4.72;2.30;;;;;;;;;;4993634;28;20222;-71
2023/07/22 06:56:45;;;;;;;2.67;1.90;;;;;;;;;;4993699;28;20210;-71
2023/07/22 06:59:14;;;;;;;1.85;1.75;;;;;;;;;;4993942;28;20198;-71
2023/07/22 07:01:41;;;;;;;1.90;1.80;;;;;;;;;;4993725;28;20206;-72
2023/07/22 07:04:08;;;;;;;2.65;1.80;;;;;;;;;;4993607;28;20225;-73
2023/07/22 07:06:35;;;;;;;1.67;1.50;;;;;;;;;;4994256;28;20210;-73
2023/07/22 07:09:03;;;;;;;1.48;1.38;;;;;;;;;;4993535;28;20674;-75
2023/07/22 07:11:30;;;;;;;1.42;1.33;;;;;;;;;;4993823;28;20206;-74
2023/07/22 07:13:57;;;;;;;2.90;1.80;;;;;;;;;;4993629;28;20222;-73
2023/07/22 07:16:28;;;;;;;2.33;1.98;;;;;;;;;;4995641;28;20210;-74
2023/07/22 07:18:56;;;;;;;1.80;1.70;;;;;;;;;;4997192;28;20634;-74
2023/07/22 07:21:23;;;;;;;1.95;1.85;;;;;;;;;;4997159;28;20267;-75
2023/07/22 07:23:51;;;;;;;1.90;1.80;;;;;;;;;;4996776;28;20728;-75
2023/07/22 07:26:18;;;;;;;2.47;1.80;;;;;;;;;;4997429;28;20225;-73
2023/07/22 07:28:46;;;;;;;1.70;1.67;;;;;;;;;;4997499;28;20213;-74
2023/07/22 07:31:13;;;;;;;1.75;1.60;;;;;;;;;;4996953;28;20252;-74
2023/07/22 07:33:41;;;;;;;1.48;1.48;;;;;;;;;;4997891;28;20222;-73
2023/07/22 07:36:08;;;;;;;1.65;1.55;;;;;;;;;;4997048;28;20198;-74
2023/07/22 07:38:35;;;;;;;1.30;1.20;;;;;;;;;;4997035;28;20202;-74
2023/07/22 07:41:04;;;;;;;1.25;1.15;;;;;;;;;;5002075;28;20209;-73
2023/07/22 07:43:31;;;;;;;0.88;0.88;;;;;;;;;;5005291;28;20248;-75
2023/07/22 07:46:17;;;;;;;1.10;1.00;;;;;;;;;;4998464;28;20225;-75
2023/07/22 07:48:46;;;;;;;0.68;0.68;;;;;;;;;;4998086;28;20256;-75
2023/07/22 07:51:14;;;;;;;0.70;0.70;;;;;;;;;;4997605;28;20206;-75
2023/07/22 07:53:41;;;;;;;0.60;0.60;;;;;;;;;;4997561;28;20226;-74
2023/07/22 07:56:09;;;;;;;0.52;0.52;;;;;;;;;;4997256;28;20230;-75
2023/07/22 07:58:36;;;;;;;0.68;0.68;;;;;;;;;;4997173;28;20225;-75
2023/07/22 08:01:03;;;;;;;0.63;0.63;;;;;;;;;;4996716;28;20665;-75
2023/07/22 08:03:30;;;;;;;0.50;0.50;;;;;;;;;;4996944;28;20257;-76
2023/07/22 08:05:59;;;;;;;0.57;0.57;;;;;;;;;;4996971;28;20229;-77
2023/07/22 08:08:26;;;;;;;1.90;0.73;;;;;;;;;;4997229;28;20209;-75
2023/07/22 08:10:59;;;;;;;0.55;0.55;;;;;;;;;;4997263;28;20202;-76
2023/07/22 08:13:27;;;;;;;0.52;0.52;;;;;;;;;;4996770;28;20210;-74
2023/07/22 08:15:54;;;;;;;0.60;0.60;;;;;;;;;;4997161;28;20194;-74
2023/07/22 08:18:21;;;;;;;0.52;0.52;;;;;;;;;;4997086;28;20187;-74
2023/07/22 08:20:48;;;;;;;0.70;0.70;;;;;;;;;;4996854;28;20209;-75
2023/07/22 08:23:16;;;;;;;0.77;0.77;;;;;;;;;;4996693;28;20209;-74
2023/07/22 08:25:43;;;;;;;0.57;0.57;;;;;;;;;;4996426;28;20226;-73
2023/07/22 08:28:10;;;;;;;1.55;0.70;;;;;;;;;;4996581;28;20206;-74
2023/07/22 08:30:39;;;;;;;0.70;0.70;;;;;;;;;;4996380;28;20206;-74
2023/07/22 08:33:07;;;;;;;1.20;0.60;;;;;;;;;;4996155;28;20206;-74
2023/07/22 08:35:35;;;;;;;0.60;0.60;;;;;;;;;;4996072;28;20229;-73
2023/07/22 08:38:03;;;;;;;1.00;1.00;;;;;;;;;;4996214;28;20213;-72
2023/07/22 08:40:35;;;;;;;0.82;0.82;;;;;;;;;;4996304;28;20264;-73
2023/07/22 08:43:03;;;;;;;0.80;0.80;;;;;;;;;;4996238;28;20214;-74
2023/07/22 08:45:32;;;;;;;0.80;0.80;;;;;;;;;;4995614;28;20685;-73
2023/07/22 08:47:59;;;;;;;0.80;0.80;;;;;;;;;;4996018;28;20202;-74
2023/07/22 08:50:29;;;;;;;1.05;0.90;;;;;;;;;;4996159;28;20186;-73
2023/07/22 08:52:57;;;;;;;0.90;0.90;;;;;;;;;;4995679;28;20186;-74
2023/07/22 08:55:25;;;;;;;1.00;1.00;;;;;;;;;;4996010;28;20218;-74
2023/07/22 08:57:53;;;;;;;1.10;1.10;;;;;;;;;;4995732;28;20256;-73
2023/07/22 09:00:21;;;;;;;1.10;1.10;;;;;;;;;;4995472;28;20205;-74
2023/07/22 09:02:48;;;;;;;1.23;0.95;;;;;;;;;;4995609;28;20202;-74
2023/07/22 09:05:15;;;;;;;0.98;0.98;;;;;;;;;;4995317;28;20240;-72
2023/07/22 09:07:43;;;;;;;0.90;0.90;;;;;;;;;;4995279;28;20202;-73
2023/07/22 09:10:10;;;;;;;1.77;0.90;;;;;;;;;;4995360;28;20210;-69
2023/07/22 09:12:40;;;;;;;0.80;0.80;;;;;;;;;;4995276;28;20257;-72
2023/07/22 09:15:11;;;;;;;0.90;0.90;;;;;;;;;;4995097;28;20809;-71
2023/07/22 09:17:38;;;;;;;0.73;0.73;;;;;;;;;;4994983;28;20210;-70
2023/07/22 09:20:06;;;;;;;0.63;0.63;;;;;;;;;;4995201;28;20190;-70
2023/07/22 09:22:33;;;;;;;1.08;1.08;;;;;;;;;;4995177;28;20206;-71
2023/07/22 09:25:14;;;;;;;1.25;0.77;;;;;;;;;;4994201;28;20443;-74
2023/07/22 09:27:41;;;;;;;0.80;0.80;;;;;;;;;;4995424;28;20186;-74
2023/07/22 09:30:22;;;;;;;0.80;0.80;;;;;;;;;;4995352;28;20198;-74
2023/07/22 09:32:49;;;;;;;0.70;0.70;;;;;;;;;;4995336;28;20208;-74
2023/07/22 09:35:16;;;;;;;0.70;0.70;;;;;;;;;;4995144;28;20218;-74
2023/07/22 09:37:44;;;;;;;0.65;0.65;;;;;;;;;;4994602;28;20213;-74
2023/07/22 09:40:17;;;;;;;0.95;0.95;;;;;;;;;;4995373;28;20202;-74
2023/07/22 09:42:46;;;;;;;0.90;0.90;;;;;;;;;;4995144;28;20208;-74
2023/07/22 09:45:13;;;;;;;1.08;1.00;;;;;;;;;;4995462;28;20222;-74
2023/07/22 09:47:45;;;;;;;0.93;0.93;;;;;;;;;;4996677;28;20271;-74
2023/07/22 09:50:13;;;;;;;1.00;1.00;;;;;;;;;;4994882;28;20566;-73
2023/07/22 09:52:44;;;;;;;1.02;0.95;;;;;;;;;;4994664;28;20341;-74
2023/07/22 09:55:12;;;;;;;0.82;0.82;;;;;;;;;;4994850;28;20222;-73
2023/07/22 09:57:40;;;;;;;0.98;0.98;;;;;;;;;;4994644;28;20268;-74
2023/07/22 10:00:09;;;;;;;1.00;1.00;;;;;;;;;;4994583;28;20198;-73
2023/07/22 10:02:37;;;;;;;1.10;1.10;;;;;;;;;;4994358;28;20685;-73
2023/07/22 10:05:07;;;;;;;0.90;0.90;;;;;;;;;;4994531;28;20230;-74
2023/07/22 10:07:34;;;;;;;1.00;1.00;;;;;;;;;;4994275;28;20206;-74
2023/07/22 10:10:03;;;;;;;1.02;1.02;;;;;;;;;;4994276;28;20514;-73
2023/07/22 10:12:30;;;;;;;0.82;0.80;;;;;;;;;;4994079;28;20214;-73
2023/07/22 10:14:57;;;;;;;1.38;1.38;;;;;;;;;;4993776;28;20228;-73
2023/07/22 10:17:24;;;;;;;1.10;1.10;;;;;;;;;;4994241;28;20210;-73
2023/07/22 10:19:54;;;;;;;1.17;1.17;;;;;;;;;;4994230;28;20202;-73
2023/07/22 10:22:23;;;;;;;1.35;1.25;;;;;;;;;;4994213;28;20202;-75
2023/07/22 10:24:51;;;;;;;1.05;1.05;;;;;;;;;;4993897;28;20233;-75
2023/07/22 10:27:18;;;;;;;1.08;1.08;;;;;;;;;;4993980;28;20210;-75
2023/07/22 10:29:47;;;;;;;2.17;1.13;;;;;;;;;;4994002;28;20225;-75
2023/07/22 10:32:14;;;;;;;1.20;1.10;;;;;;;;;;5017151;23;20222;-73
2023/07/22 10:34:41;;;;;;;1.75;1.13;;;;;;;;;;4993874;28;20208;-74
2023/07/22 10:37:11;;;;;;;0.98;0.98;;;;;;;;;;4993872;28;20285;-73
2023/07/22 10:39:39;;;;;;;3.63;2.15;;;;;;;;;;4994227;28;20249;-74
2023/07/22 10:42:07;;;;;;;2.25;2.05;;;;;;;;;;4993791;28;20229;-74
2023/07/22 10:44:34;;;;;;;1.60;1.50;;;;;;;;;;4993583;28;20607;-73
2023/07/22 10:47:03;;;;;;;2.63;2.42;;;;;;;;;;4993505;28;20724;-75
2023/07/22 10:49:44;;;;;;;1.75;1.65;;;;;;;;;;4994995;28;20273;-75
2023/07/22 10:52:13;;;;;;;1.27;1.27;;;;;;;;;;4997773;28;20222;-74
2023/07/22 10:54:41;;;;;;;1.17;1.17;;;;;;;;;;4997412;28;20191;-74
2023/07/22 10:57:23;;;;;;;2.97;1.70;;;;;;;;;;4997372;28;20293;-74
2023/07/22 10:59:51;;;;;;;2.13;1.92;;;;;;;;;;4997550;28;20221;-75
2023/07/22 11:02:25;;;;;;;1.35;1.35;;;;;;;;;;4997306;28;20222;-74
2023/07/22 11:04:52;;;;;;;1.50;1.40;;;;;;;;;;4997297;28;20202;-74
2023/07/22 11:07:31;;;;;;;1.15;1.15;;;;;;;;;;4997070;28;20229;-74
2023/07/22 11:10:12;;;;;;;1.08;1.08;;;;;;;;;;4997158;28;20196;-74
2023/07/22 11:12:40;;;;;;;1.13;1.13;;;;;;;;;;4997050;28;20225;-74
2023/07/22 11:15:07;;;;;;;1.17;1.08;;;;;;;;;;4997076;28;20249;-74
2023/07/22 11:17:34;;;;;;;1.40;1.10;;;;;;;;;;4997151;28;20206;-74
2023/07/22 11:20:02;;;;;;;1.13;1.13;;;;;;;;;;4997322;28;20256;-74
2023/07/22 11:22:30;;;;;;;1.10;1.10;;;;;;;;;;4997006;28;20254;-74
2023/07/22 11:24:57;;;;;;;1.08;1.08;;;;;;;;;;4999005;28;20669;-74
2023/07/22 11:27:26;;;;;;;0.80;0.80;;;;;;;;;;4996845;28;20226;-74
2023/07/22 11:29:53;;;;;;;1.10;1.10;;;;;;;;;;4996782;28;20202;-74
2023/07/22 11:32:22;;;;;;;1.25;1.25;;;;;;;;;;4996338;28;20236;-74
2023/07/22 11:34:49;;;;;;;1.00;1.00;;;;;;;;;;4996789;28;20206;-75
2023/07/22 11:37:16;;;;;;;1.13;1.13;;;;;;;;;;4996997;28;20205;-75
2023/07/22 11:39:44;;;;;;;1.15;1.15;;;;;;;;;;4996659;28;20213;-74
2023/07/22 11:42:12;;;;;;;1.30;1.30;;;;;;;;;;4996574;28;20281;-74
2023/07/22 11:44:40;;;;;;;1.25;1.15;;;;;;;;;;4996671;28;20249;-74
2023/07/22 11:47:08;;;;;;;1.60;1.60;;;;;;;;;;4997057;28;20218;-74
2023/07/22 11:49:36;;;;;;;1.38;1.38;;;;;;;;;;4996460;28;20686;-74
2023/07/22 11:52:04;;;;;;;1.50;1.40;;;;;;;;;;4996382;28;20226;-74
2023/07/22 11:54:31;;;;;;;1.17;1.17;;;;;;;;;;4996414;28;20205;-73
2023/07/22 11:56:58;;;;;;;1.33;1.33;;;;;;;;;;4996010;28;20201;-73
2023/07/22 11:59:35;;;;;;;1.40;1.30;;;;;;;;;;4996157;28;20564;-74
2023/07/22 12:02:05;;;;;;;1.50;1.40;;;;;;;;;;4995508;28;20226;-74
2023/07/22 12:04:32;;;;;;;1.50;1.40;;;;;;;;;;4996191;28;20681;-75
2023/07/22 12:06:59;;;;;;;1.20;1.20;;;;;;;;;;4996179;28;20268;-75
2023/07/22 12:09:27;;;;;;;1.35;1.35;;;;;;;;;;4996131;28;20193;-76
2023/07/22 12:11:58;;;;;;;1.85;1.75;;;;;;;;;;4996228;28;20226;-76
2023/07/22 12:14:25;;;;;;;1.35;1.35;;;;;;;;;;4996587;28;20202;-75
2023/07/22 12:16:57;;;;;;;1.60;1.50;;;;;;;;;;4996341;28;20209;-76
2023/07/22 12:19:25;;;;;;;1.73;1.63;;;;;;;;;;4996116;28;20723;-76
2023/07/22 12:21:52;;;;;;;1.83;1.75;;;;;;;;;;4996115;28;20222;-76
2023/07/22 12:24:20;;;;;;;2.90;1.83;;;;;;;;;;4995980;28;20210;-75
2023/07/22 12:26:47;;;;;;;1.50;1.50;;;;;;;;;;4995611;28;20696;-74
2023/07/22 12:29:14;;;;;;;1.95;1.80;;;;;;;;;;4995943;28;20209;-75
2023/07/22 12:31:41;;;;;;;1.60;1.60;;;;;;;;;;4995598;28;20230;-75
2023/07/22 12:34:08;;;;;;;2.45;1.55;;;;;;;;;;4996237;28;20241;-74
2023/07/22 12:36:37;;;;;;;1.65;1.55;;;;;;;;;;4995772;28;20205;-74
2023/07/22 12:39:04;;;;;;;1.77;1.67;;;;;;;;;;4995748;28;20190;-74
2023/07/22 12:41:32;;;;;;;1.83;1.73;;;;;;;;;;4995642;28;20222;-75
2023/07/22 12:43:59;;;;;;;2.25;2.05;;;;;;;;;;4995609;28;20202;-75
2023/07/22 12:46:26;;;;;;;1.63;1.58;;;;;;;;;;4995176;28;20697;-75
2023/07/22 12:48:53;;;;;;;2.03;1.75;;;;;;;;;;4995532;28;20202;-75
2023/07/22 12:51:20;;;;;;;2.20;1.98;;;;;;;;;;4995682;28;20225;-75
2023/07/22 12:53:49;;;;;;;2.00;1.90;;;;;;;;;;4995338;28;20206;-75
2023/07/22 12:56:16;;;;;;;2.40;2.20;;;;;;;;;;4995560;28;20198;-75
2023/07/22 12:58:43;;;;;;;2.10;2.00;;;;;;;;;;4995539;28;20210;-75
2023/07/22 13:01:10;;;;;;;1.50;1.50;;;;;;;;;;4995655;28;20261;-73
2023/07/22 13:03:37;;;;;;;1.92;1.83;;;;;;;;;;4995374;28;20206;-74
2023/07/22 13:06:04;;;;;;;1.85;1.80;;;;;;;;;;4995162;28;20227;-74
2023/07/22 13:08:31;;;;;;;1.98;1.88;;;;;;;;;;4994850;28;20202;-75
2023/07/22 13:11:00;;;;;;;2.10;1.98;;;;;;;;;;4994797;28;20661;-76
2023/07/22 13:13:27;;;;;;;1.95;1.85;;;;;;;;;;4994250;28;20205;-75
2023/07/22 13:15:54;;;;;;;2.63;2.40;;;;;;;;;;4995071;28;20206;-76
2023/07/22 13:18:21;;;;;;;2.03;1.92;;;;;;;;;;4995052;28;20206;-76
2023/07/22 13:20:48;;;;;;;2.53;2.30;;;;;;;;;;4994893;28;20228;-75
2023/07/22 13:23:15;;;;;;;1.80;1.70;;;;;;;;;;4995096;28;20198;-75
2023/07/22 13:25:42;;;;;;;3.35;2.20;;;;;;;;;;4994899;28;20254;-75
2023/07/22 13:28:11;;;;;;;2.20;2.10;;;;;;;;;;4994588;28;20234;-75
2023/07/22 13:30:38;;;;;;;2.25;2.15;;;;;;;;;;4994644;28;20660;-73
2023/07/22 13:33:05;;;;;;;2.97;2.22;;;;;;;;;;4994284;28;20706;-73
2023/07/22 13:35:32;;;;;;;3.33;2.20;;;;;;;;;;4994843;28;20205;-74
2023/07/22 13:37:59;;;;;;;2.10;2.00;;;;;;;;;;4995022;28;20202;-74
2023/07/22 13:40:26;;;;;;;2.33;2.20;;;;;;;;;;4994934;28;20210;-76
2023/07/22 13:42:53;;;;;;;2.53;2.33;;;;;;;;;;4994640;28;20229;-72
2023/07/22 13:45:22;;;;;;;1.80;1.80;;;;;;;;;;4994362;28;20565;-73
2023/07/22 13:47:49;;;;;;;2.17;2.08;;;;;;;;;;4994286;28;20690;-73
2023/07/22 13:50:16;;;;;;;2.28;2.17;;;;;;;;;;4994234;28;20206;-74
2023/07/22 13:52:43;;;;;;;1.85;1.75;;;;;;;;;;4994342;28;20218;-73
2023/07/22 13:55:10;;;;;;;1.95;1.85;;;;;;;;;;4995176;28;20292;-73
2023/07/22 13:57:37;;;;;;;2.17;2.08;;;;;;;;;;4995492;28;20249;-74
2023/07/22 14:00:08;;;;;;;2.42;2.33;;;;;;;;;;4996315;28;20202;-72
2023/07/22 14:02:36;;;;;;;2.97;2.65;;;;;;;;;;4996423;28;20594;-77
2023/07/22 14:05:04;;;;;;;2.70;2.40;;;;;;;;;;4996310;28;20202;-74
2023/07/22 14:07:31;;;;;;;2.10;2.00;;;;;;;;;;4995229;28;20261;-74
2023/07/22 14:09:58;;;;;;;2.33;2.13;;;;;;;;;;4995444;28;20213;-74
2023/07/22 14:12:25;;;;;;;2.50;2.30;;;;;;;;;;4995383;28;20225;-74
2023/07/22 14:14:52;;;;;;;2.55;2.40;;;;;;;;;;4995141;28;20198;-72
2023/07/22 14:17:19;;;;;;;1.98;1.88;;;;;;;;;;4994998;28;20209;-73
2023/07/22 14:19:48;;;;;;;2.22;2.13;;;;;;;;;;4997157;28;20237;-75
2023/07/22 14:22:16;;;;;;;2.28;2.17;;;;;;;;;;4997528;28;20225;-74
2023/07/22 14:24:43;;;;;;;2.30;2.10;;;;;;;;;;4995680;28;20208;-75
2023/07/22 14:27:10;;;;;;;2.30;2.20;;;;;;;;;;4998222;28;20581;-75
2023/07/22 14:29:37;;;;;;;2.63;2.42;;;;;;;;;;4997914;28;20209;-75
2023/07/22 14:32:04;;;;;;;2.10;2.00;;;;;;;;;;4998158;28;20238;-76
2023/07/22 14:34:31;;;;;;;2.47;2.28;;;;;;;;;;4998450;28;20205;-75
2023/07/22 14:36:59;;;;;;;2.55;2.35;;;;;;;;;;4998190;28;20198;-74
2023/07/22 14:39:26;;;;;;;2.53;2.40;;;;;;;;;;4997978;28;20202;-74
2023/07/22 14:41:54;;;;;;;3.05;2.08;;;;;;;;;;4997807;28;20222;-74
2023/07/22 14:44:21;;;;;;;2.47;2.28;;;;;;;;;;4997543;28;20198;-71
2023/07/22 14:46:48;;;;;;;2.30;2.20;;;;;;;;;;4997732;28;20221;-73
2023/07/22 14:49:15;;;;;;;2.10;2.00;;;;;;;;;;4997992;28;20206;-71
2023/07/22 14:51:42;;;;;;;2.17;2.08;;;;;;;;;;4998082;28;20230;-69
2023/07/22 14:54:10;;;;;;;1.83;1.73;;;;;;;;;;4997776;28;20560;-71
2023/07/22 14:56:37;;;;;;;2.22;2.13;;;;;;;;;;4997242;28;20543;-71
2023/07/22 14:59:04;;;;;;;1.95;1.85;;;;;;;;;;4997472;28;20238;-71
2023/07/22 15:01:38;;;;;;;2.15;2.05;;;;;;;;;;4997613;28;20253;-72
2023/07/22 15:04:05;;;;;;;2.28;1.70;;;;;;;;;;4997974;28;20186;-73
2023/07/22 15:06:32;;;;;;;2.15;2.03;;;;;;;;;;4997639;28;20236;-72
2023/07/22 15:08:59;;;;;;;2.40;2.30;;;;;;;;;;4997259;28;20206;-73
2023/07/22 15:11:28;;;;;;;2.15;2.05;;;;;;;;;;4997394;28;20222;-72
2023/07/22 15:13:55;;;;;;;2.00;1.90;;;;;;;;;;4997085;28;20213;-72
2023/07/22 15:16:22;;;;;;;1.90;1.80;;;;;;;;;;4997088;28;20202;-72
2023/07/22 15:18:49;;;;;;;2.00;1.90;;;;;;;;;;4996951;28;20208;-71
2023/07/22 15:21:16;;;;;;;1.88;1.77;;;;;;;;;;4996761;28;20229;-71
2023/07/22 15:23:43;;;;;;;1.73;1.73;;;;;;;;;;4996426;28;20202;-71
2023/07/22 15:26:10;;;;;;;1.60;1.60;;;;;;;;;;4996849;28;20202;-71
2023/07/22 15:28:39;;;;;;;1.80;1.70;;;;;;;;;;4997165;28;20226;-72
2023/07/22 15:31:06;;;;;;;1.88;1.70;;;;;;;;;;4996668;28;20233;-73
2023/07/22 15:33:35;;;;;;;1.80;1.70;;;;;;;;;;4996844;28;20187;-72
2023/07/22 15:36:02;;;;;;;1.60;1.60;;;;;;;;;;4995506;28;20666;-71
2023/07/22 15:38:29;;;;;;;1.60;1.60;;;;;;;;;;4996513;28;20209;-72
2023/07/22 15:40:56;;;;;;;1.90;1.80;;;;;;;;;;4996723;28;20207;-72
2023/07/22 15:43:23;;;;;;;2.20;2.10;;;;;;;;;;4996462;28;20206;-72
2023/07/22 15:45:52;;;;;;;1.90;1.80;;;;;;;;;;4996825;28;20198;-72
2023/07/22 15:48:19;;;;;;;1.73;1.63;;;;;;;;;;4996966;28;20214;-72
2023/07/22 15:50:46;;;;;;;1.98;1.88;;;;;;;;;;4997050;28;20198;-72
2023/07/22 15:53:13;;;;;;;2.08;1.83;;;;;;;;;;4997006;28;20241;-72
2023/07/22 15:55:40;;;;;;;2.13;2.03;;;;;;;;;;4997118;28;20199;-72
2023/07/22 15:58:07;;;;;;;1.95;1.85;;;;;;;;;;4996461;28;20283;-72
2023/07/22 16:00:34;;;;;;;1.63;1.63;;;;;;;;;;4996475;28;20593;-73
2023/07/22 16:03:02;;;;;;;2.22;2.13;;;;;;;;;;4996123;28;20222;-71
2023/07/22 16:05:30;;;;;;;1.75;1.65;;;;;;;;;;4996539;28;20206;-72
2023/07/22 16:07:57;;;;;;;1.90;1.80;;;;;;;;;;4996279;28;20249;-71
2023/07/22 16:10:24;;;;;;;2.17;2.08;;;;;;;;;;4996478;28;20209;-72
2023/07/22 16:12:51;;;;;;;1.90;1.80;;;;;;;;;;4996259;28;20226;-71
2023/07/22 16:15:18;;;;;;;2.13;2.03;;;;;;;;;;4996271;28;20202;-71
2023/07/22 16:17:45;;;;;;;2.22;2.13;;;;;;;;;;4996527;28;20241;-71
2023/07/22 16:20:14;;;;;;;5.65;2.65;;;;;;;;;;4996225;28;20198;-72
2023/07/22 16:22:41;;;;;;;2.10;2.00;;;;;;;;;;4996298;28;20231;-72
2023/07/22 16:25:10;;;;;;;1.90;1.90;;;;;;;;;;4996431;28;20205;-72
2023/07/22 16:27:37;;;;;;;2.30;2.10;;;;;;;;;;4995782;28;20249;-72
2023/07/22 16:30:04;;;;;;;3.00;2.80;;;;;;;;;;4995535;28;20209;-73
2023/07/22 16:32:31;;;;;;;2.40;2.30;;;;;;;;;;5018856;23;20229;-75
2023/07/22 16:34:58;;;;;;;2.80;2.60;;;;;;;;;;4995909;28;20685;-75
2023/07/22 16:37:27;;;;;;;2.35;2.25;;;;;;;;;;4995739;28;20198;-75
2023/07/22 16:39:55;;;;;;;1.90;1.85;;;;;;;;;;4995522;28;20217;-74
2023/07/22 16:42:22;;;;;;;1.95;1.85;;;;;;;;;;4995286;28;20665;-75
2023/07/22 16:44:50;;;;;;;1.85;1.80;;;;;;;;;;4995605;28;20202;-74
2023/07/22 16:47:17;;;;;;;1.63;1.52;;;;;;;;;;4995430;28;20265;-74
2023/07/22 16:49:45;;;;;;;1.58;1.52;;;;;;;;;;4995372;28;20209;-73
2023/07/22 16:52:12;;;;;;;1.50;1.50;;;;;;;;;;4995300;28;20255;-73
2023/07/22 16:54:42;;;;;;;1.30;1.30;;;;;;;;;;4995404;28;20296;-73
2023/07/22 16:57:09;;;;;;;1.70;1.70;;;;;;;;;;4995433;28;20194;-73
2023/07/22 16:59:36;;;;;;;1.40;1.40;;;;;;;;;;4995405;28;20210;-75
2023/07/22 17:02:03;;;;;;;1.60;1.50;;;;;;;;;;4995735;28;20202;-73
2023/07/22 17:04:30;;;;;;;1.40;1.35;;;;;;;;;;4995565;28;20202;-74
2023/07/22 17:14:46;;;;;;;1.30;1.30;;;;;;;;;;5614246;23;20202;-72
2023/07/22 17:17:13;;;;;;;1.17;1.17;;;;;;;;;;4994728;28;20233;-72
2023/07/22 17:19:40;;;;;;;1.33;1.33;;;;;;;;;;4994826;28;20209;-72
2023/07/22 17:22:07;;;;;;;0.90;0.90;;;;;;;;;;4994625;28;20617;-73
2023/07/22 17:24:34;;;;;;;1.10;1.10;;;;;;;;;;4994697;28;20226;-72
2023/07/22 17:27:01;;;;;;;1.23;1.23;;;;;;;;;;4994848;28;20202;-72
2023/07/22 17:29:28;;;;;;;1.15;1.15;;;;;;;;;;4995005;28;20670;-72
2023/07/22 17:31:57;;;;;;;1.30;1.30;;;;;;;;;;4994206;28;20205;-71
2023/07/22 17:34:24;;;;;;;1.30;1.30;;;;;;;;;;4994382;28;20233;-71
2023/07/22 17:36:51;;;;;;;1.00;1.00;;;;;;;;;;4994815;28;20202;-73
2023/07/22 17:39:18;;;;;;;1.92;1.00;;;;;;;;;;4994761;28;20201;-71
2023/07/22 17:41:45;;;;;;;1.00;1.00;;;;;;;;;;4994932;28;20565;-71
2023/07/22 17:44:13;;;;;;;1.00;1.00;;;;;;;;;;4994577;28;20222;-71
2023/07/22 17:46:40;;;;;;;1.17;1.17;;;;;;;;;;4994564;28;20201;-70
2023/07/22 17:49:08;;;;;;;1.08;1.08;;;;;;;;;;4995057;28;20257;-73
2023/07/22 17:51:35;;;;;;;1.15;1.15;;;;;;;;;;4994430;28;20565;-73
2023/07/22 17:54:02;;;;;;;1.10;1.10;;;;;;;;;;4994466;28;20226;-73
2023/07/22 17:56:29;;;;;;;1.10;1.10;;;;;;;;;;4994978;28;20206;-73
2023/07/22 17:58:56;;;;;;;1.10;1.10;;;;;;;;;;4993816;28;20225;-73
2023/07/22 18:01:24;;;;;;;1.27;1.27;;;;;;;;;;4994105;28;20608;-73
2023/07/22 18:03:51;;;;;;;1.00;1.00;;;;;;;;;;4994121;28;20198;-73
2023/07/22 18:06:19;;;;;;;1.15;1.15;;;;;;;;;;4994196;28;20205;-72
2023/07/22 18:08:46;;;;;;;1.23;1.23;;;;;;;;;;4993928;28;20218;-72
2023/07/22 18:11:13;;;;;;;1.13;1.13;;;;;;;;;;4993989;28;20205;-73
2023/07/22 18:13:40;;;;;;;0.82;0.82;;;;;;;;;;4994002;28;20210;-71
2023/07/22 18:16:07;;;;;;;0.85;0.85;;;;;;;;;;4994397;28;20213;-72
2023/07/22 18:18:34;;;;;;;1.00;1.00;;;;;;;;;;4994320;28;20206;-73
2023/07/22 18:21:02;;;;;;;1.00;1.00;;;;;;;;;;4994392;28;20658;-73
2023/07/22 18:23:30;;;;;;;1.00;0.90;;;;;;;;;;4994163;28;20225;-72
2023/07/22 18:25:57;;;;;;;0.98;0.98;;;;;;;;;;4994441;28;20233;-72
2023/07/22 18:28:26;;;;;;;1.02;1.02;;;;;;;;;;4994427;28;20221;-73
2023/07/22 18:30:53;;;;;;;1.00;1.00;;;;;;;;;;4994043;28;20205;-74
2023/07/22 18:33:21;;;;;;;0.80;0.80;;;;;;;;;;4994153;28;20198;-73
2023/07/22 18:35:49;;;;;;;0.98;0.98;;;;;;;;;;4993798;28;20222;-74
2023/07/22 18:38:17;;;;;;;0.90;0.90;;;;;;;;;;4993734;28;20221;-73
2023/07/22 18:40:46;;;;;;;1.00;1.00;;;;;;;;;;4994076;28;20269;-73
2023/07/22 18:43:13;;;;;;;1.02;1.02;;;;;;;;;;4994180;28;20206;-73
2023/07/22 18:45:40;;;;;;;1.13;1.13;;;;;;;;;;4994005;28;20223;-72
2023/07/22 18:48:07;;;;;;;1.02;1.02;;;;;;;;;;4993991;28;20229;-75
2023/07/22 18:50:36;;;;;;;1.08;1.08;;;;;;;;;;4994039;28;20205;-73
2023/07/22 18:53:03;;;;;;;1.10;1.10;;;;;;;;;;4994178;28;20202;-74
2023/07/22 18:55:30;;;;;;;1.88;1.77;;;;;;;;;;4994493;28;20249;-73
2023/07/22 18:57:58;;;;;;;1.75;1.67;;;;;;;;;;4993538;28;20261;-73
2023/07/22 19:00:26;;;;;;;2.33;1.95;;;;;;;;;;4993990;28;20206;-73
2023/07/22 19:02:53;;;;;;;1.90;1.80;;;;;;;;;;4993995;28;20221;-74
2023/07/22 19:05:20;;;;;;;1.92;1.83;;;;;;;;;;4993749;28;20226;-72
2023/07/22 19:07:51;;;;;;;1.73;1.73;;;;;;;;;;4993336;28;20697;-74
2023/07/22 19:10:18;;;;;;;1.80;1.75;;;;;;;;;;4994346;28;20194;-74